Time;durP1;ratioP1;P1;durP2;ratioP2;P2;SDS_P1;SDS_P2;PMS_P1;PMS_P2;Temp;Humidity;BMP_temperature;BMP_pressure;BME280_temperature;BME280_humidity;BME280_pressure;Samples;Min_cycle;Max_cycle;Signal;HPM_P1;HPM_P2
2021/04/23 00:00:43;;;;;;;6.00;2.10;;;;;;;3.86;87.04;99909.16;10371443;28;20173;-74
2021/04/23 00:06:28;;;;;;;1.40;1.27;;;;;;;3.58;87.68;99911.66;10373140;28;20575;-74
2021/04/23 00:11:56;;;;;;;1.00;0.80;;;;;;;3.45;88.31;99911.94;10373704;28;20218;-77
2021/04/23 00:17:17;;;;;;;3.60;2.80;;;;;;;3.35;89.21;99925.91;10381420;28;20572;-74
2021/04/23 00:22:36;;;;;;;1.17;0.80;;;;;;;3.44;88.64;99913.84;10380875;28;20208;-74
2021/04/23 00:27:57;;;;;;;2.40;1.60;;;;;;;3.43;90.40;99914.97;10379782;28;20176;-73
2021/04/23 00:33:17;;;;;;;4.10;1.47;;;;;;;3.31;92.34;99923.06;10380832;28;20631;-73
2021/04/23 00:38:37;;;;;;;2.90;1.33;;;;;;;3.25;92.73;99915.44;10365851;28;20268;-73
2021/04/23 00:43:57;;;;;;;0.90;0.80;;;;;;;3.05;95.43;99912.69;10378568;28;20406;-74
2021/04/23 00:49:16;;;;;;;3.60;2.37;;;;;;;3.03;95.88;99915.75;10365460;28;20181;-74
2021/04/23 00:54:35;;;;;;;1.57;1.43;;;;;;;3.04;95.96;99921.97;10380044;28;20646;-74
2021/04/23 00:59:55;;;;;;;3.97;3.60;;;;;;;2.98;97.88;99928.72;10378544;28;20209;-74
2021/04/23 01:05:15;;;;;;;1.00;0.87;;;;;;;2.90;99.39;99922.25;10379116;28;20216;-75
2021/04/23 01:10:35;;;;;;;1.23;1.13;;;;;;;2.82;100.00;99927.72;10379297;28;20173;-74
2021/04/23 01:15:54;;;;;;;1.30;1.00;;;;;;;2.80;100.00;99932.66;10377055;28;20256;-74
2021/04/23 01:21:18;;;;;;;1.43;1.33;;;;;;;2.75;100.00;99939.06;10378970;28;20180;-74
2021/04/23 01:26:43;;;;;;;4.30;3.43;;;;;;;2.77;99.99;99934.13;10376786;28;20204;-74
2021/04/23 01:32:02;;;;;;;19.63;1.80;;;;;;;2.66;100.00;99927.50;10377179;28;20216;-74
2021/04/23 01:37:22;;;;;;;1.30;1.17;;;;;;;2.46;100.00;99928.19;10378344;28;20214;-76
2021/04/23 01:42:41;;;;;;;1.23;1.13;;;;;;;2.39;100.00;99925.19;10376536;28;20287;-73
2021/04/23 01:48:00;;;;;;;2.90;0.90;;;;;;;2.40;100.00;99932.22;10377226;28;20221;-74
2021/04/23 01:53:19;;;;;;;1.17;1.00;;;;;;;2.48;100.00;99928.69;10362883;28;20176;-75
2021/04/23 01:58:39;;;;;;;9.40;2.13;;;;;;;2.42;100.00;99942.75;10376253;28;20208;-75
2021/04/23 02:03:59;;;;;;;0.93;0.73;;;;;;;2.41;100.00;99941.97;10377104;28;20204;-75
2021/04/23 02:09:18;;;;;;;1.27;1.17;;;;;;;2.25;100.00;99944.72;10377096;28;20180;-74
2021/04/23 02:14:37;;;;;;;1.67;1.57;;;;;;;2.05;100.00;99943.50;10375715;28;20204;-74
2021/04/23 02:19:57;;;;;;;1.43;0.60;;;;;;;2.05;100.00;99950.84;10376707;28;20188;-75
2021/04/23 02:25:18;;;;;;;1.77;1.13;;;;;;;2.03;100.00;99951.16;10375950;28;20221;-74
2021/04/23 02:30:42;;;;;;;1.87;1.70;;;;;;;2.00;100.00;99956.44;10375178;28;20173;-74
2021/04/23 02:36:01;;;;;;;1.57;1.47;;;;;;;1.95;100.00;99964.72;10375971;28;20615;-74
2021/04/23 02:41:21;;;;;;;5.67;1.43;;;;;;;2.07;100.00;99968.38;10361027;28;20173;-75
2021/04/23 02:46:42;;;;;;;3.30;1.90;;;;;;;1.85;100.00;99970.50;10373655;28;20216;-74
2021/04/23 02:52:01;;;;;;;2.33;2.00;;;;;;;1.90;100.00;99967.63;10375554;28;20181;-77
2021/04/23 02:57:19;;;;;;;0.87;0.63;;;;;;;1.90;100.00;99964.91;10373943;28;20173;-74
2021/04/23 03:02:38;;;;;;;2.70;1.43;;;;;;;1.73;100.00;99960.31;10360089;28;20235;-74
2021/04/23 03:07:58;;;;;;;1.73;1.63;;;;;;;1.71;100.00;99964.44;10373924;28;20534;-74
2021/04/23 03:13:20;;;;;;;11.40;1.47;;;;;;;1.56;100.00;99973.06;10373675;28;20180;-76
2021/04/23 03:18:42;;;;;;;1.73;1.17;;;;;;;1.45;100.00;99971.78;10359791;28;20259;-74
2021/04/23 03:24:02;;;;;;;1.40;1.00;;;;;;;1.56;100.00;99978.47;10374022;28;20204;-75
2021/04/23 03:29:22;;;;;;;1.10;1.00;;;;;;;1.57;100.00;99982.78;10373207;28;20181;-77
2021/04/23 03:34:40;;;;;;;1.90;1.80;;;;;;;1.29;100.00;99983.41;10374145;28;20255;-75
2021/04/23 03:40:00;;;;;;;2.30;1.27;;;;;;;1.11;100.00;99985.28;10374163;28;20180;-74
2021/04/23 03:45:22;;;;;;;1.87;1.00;;;;;;;1.12;100.00;99983.38;10370805;28;20224;-74
2021/04/23 03:50:42;;;;;;;1.17;1.00;;;;;;;1.25;100.00;99990.59;10370424;28;20570;-75
2021/04/23 03:56:04;;;;;;;7.00;5.33;;;;;;;1.09;100.00;99997.56;10387460;28;20172;-74
2021/04/23 04:01:24;;;;;;;0.90;0.70;;;;;;;1.19;100.00;99994.53;10371009;28;20533;-75
2021/04/23 04:06:46;;;;;;;1.97;1.37;;;;;;;1.30;100.00;99995.84;10387134;28;20184;-77
2021/04/23 04:12:05;;;;;;;0.80;0.50;;;;;;;1.18;100.00;100007.31;10387038;28;20185;-74
2021/04/23 04:17:24;;;;;;;2.90;1.77;;;;;;;1.11;100.00;100023.22;10372091;28;20181;-74
2021/04/23 04:22:44;;;;;;;4.30;1.10;;;;;;;1.19;100.00;100021.63;10386522;28;20203;-74
2021/04/23 04:28:07;;;;;;;13.23;1.60;;;;;;;1.12;100.00;100040.28;10385571;28;20201;-76
2021/04/23 04:33:26;;;;;;;1.63;1.53;;;;;;;1.05;100.00;100042.63;10386680;28;20615;-75
2021/04/23 04:38:46;;;;;;;2.60;2.40;;;;;;;1.20;100.00;100051.16;10386578;28;20181;-75
2021/04/23 04:44:05;;;;;;;0.90;0.80;;;;;;;1.24;100.00;100054.81;10384435;28;20232;-77
2021/04/23 04:49:25;;;;;;;9.10;1.07;;;;;;;1.39;100.00;100067.91;10385572;28;20676;-78
2021/04/23 04:54:44;;;;;;;0.90;0.77;;;;;;;1.44;100.00;100078.63;10386235;28;20184;-75
2021/04/23 05:00:07;;;;;;;1.43;0.90;;;;;;;1.37;100.00;100083.72;10382196;28;20180;-75
2021/04/23 05:05:27;;;;;;;2.87;2.60;;;;;;;1.49;100.00;100081.19;10379319;28;20236;-76
2021/04/23 05:10:45;;;;;;;1.70;1.20;;;;;;;1.70;100.00;100087.59;10379505;28;20173;-76
2021/04/23 05:16:05;;;;;;;0.93;0.73;;;;;;;1.91;100.00;100086.66;10363201;28;20214;-76
2021/04/23 05:21:25;;;;;;;2.20;0.90;;;;;;;2.09;100.00;100095.63;10377843;28;20201;-74
2021/04/23 05:26:44;;;;;;;1.30;1.20;;;;;;;2.36;100.00;100096.88;10363976;28;20208;-74
2021/04/23 05:32:05;;;;;;;1.13;1.00;;;;;;;2.68;100.00;100095.56;10377318;28;20181;-74
2021/04/23 05:37:24;;;;;;;1.77;1.67;;;;;;;2.94;100.00;100107.97;10363647;28;20169;-75
2021/04/23 05:42:44;;;;;;;1.13;0.97;;;;;;;3.28;100.00;100114.06;10361953;28;20212;-74
2021/04/23 05:48:04;;;;;;;0.90;0.50;;;;;;;3.64;100.00;100117.09;10377241;28;20216;-74
2021/04/23 05:53:23;;;;;;;4.23;1.77;;;;;;;4.03;100.00;100122.13;10376936;28;20251;-76
2021/04/23 05:58:42;;;;;;;2.33;1.20;;;;;;;4.37;100.00;100125.38;10376240;28;20184;-75
2021/04/23 06:04:01;;;;;;;6.10;2.63;;;;;;;4.35;100.00;100130.38;10377022;28;20204;-75
2021/04/23 06:09:21;;;;;;;1.00;0.70;;;;;;;4.42;100.00;100138.00;10362223;28;20176;-74
2021/04/23 06:14:40;;;;;;;3.53;2.67;;;;;;;4.79;100.00;100129.63;10374474;28;20173;-75
2021/04/23 06:19:59;;;;;;;6.43;1.83;;;;;;;5.21;98.13;100133.84;10376632;28;20173;-74
2021/04/23 06:25:19;;;;;;;1.37;1.27;;;;;;;5.79;91.84;100124.13;10375123;28;20200;-74
2021/04/23 06:30:39;;;;;;;3.00;2.70;;;;;;;6.27;90.21;100134.16;10375195;28;20271;-75
2021/04/23 06:35:58;;;;;;;1.60;1.50;;;;;;;6.93;85.71;100133.34;10361356;28;20184;-74
2021/04/23 06:41:17;;;;;;;7.23;2.90;;;;;;;7.42;84.77;100138.97;10376147;28;20627;-74
2021/04/23 06:46:37;;;;;;;1.30;1.20;;;;;;;7.81;81.15;100132.50;10372673;28;20237;-74
2021/04/23 06:51:57;;;;;;;2.20;1.20;;;;;;;8.19;80.64;100136.19;10375639;28;20196;-75
2021/04/23 06:57:17;;;;;;;1.20;1.00;;;;;;;8.89;78.06;100137.66;10374042;28;20185;-75
2021/04/23 07:02:36;;;;;;;3.13;2.50;;;;;;;9.00;66.12;100142.19;10375109;28;20204;-74
2021/04/23 07:07:55;;;;;;;2.60;2.40;;;;;;;9.48;63.70;100144.25;10375040;28;20558;-74
2021/04/23 07:13:16;;;;;;;8.03;1.40;;;;;;;10.36;62.24;100137.03;10373741;28;20585;-76
2021/04/23 07:18:34;;;;;;;8.43;1.93;;;;;;;10.86;59.93;100131.00;10374789;28;20259;-75
2021/04/23 07:23:53;;;;;;;2.43;1.20;;;;;;;11.43;56.28;100135.91;10358475;28;20250;-76
2021/04/23 07:29:12;;;;;;;11.60;4.33;;;;;;;11.79;55.86;100143.38;10373272;28;20172;-76
2021/04/23 07:34:32;;;;;;;2.70;2.03;;;;;;;12.15;53.13;100141.28;10374218;28;20191;-77
2021/04/23 07:39:51;;;;;;;5.07;2.20;;;;;;;12.58;51.00;100145.06;10374157;28;20220;-76
2021/04/23 07:45:11;;;;;;;6.20;2.70;;;;;;;12.51;51.40;100136.75;10371967;28;20236;-75
2021/04/23 07:50:31;;;;;;;8.93;2.03;;;;;;;13.08;49.57;100133.88;10359013;28;20201;-77
2021/04/23 07:55:50;;;;;;;4.30;3.10;;;;;;;13.73;48.15;100124.88;10373863;28;20184;-77
2021/04/23 08:01:09;;;;;;;3.70;2.30;;;;;;;14.26;46.41;100127.63;10357836;28;20204;-76
2021/04/23 08:06:28;;;;;;;3.83;2.50;;;;;;;14.90;46.70;100124.25;10372891;28;20569;-76
2021/04/23 08:11:47;;;;;;;4.50;3.27;;;;;;;14.88;44.00;100130.22;10373585;28;20173;-78
2021/04/23 08:17:08;;;;;;;11.80;2.20;;;;;;;14.54;46.41;100136.66;10372291;28;20173;-78
2021/04/23 08:22:27;;;;;;;4.10;2.20;;;;;;;15.02;45.16;100127.38;10372942;28;20213;-78
2021/04/23 08:27:46;;;;;;;5.47;2.80;;;;;;;14.22;43.39;100133.16;10371926;28;20181;-77
2021/04/23 08:33:06;;;;;;;6.10;1.87;;;;;;;14.45;43.12;100130.75;10373350;28;20272;-77
2021/04/23 08:38:25;;;;;;;3.03;2.73;;;;;;;15.27;42.99;100125.28;10380712;28;20176;-78
2021/04/23 08:43:44;;;;;;;12.53;2.17;;;;;;;14.92;44.21;100119.09;10378797;28;20208;-80
2021/04/23 08:49:06;;;;;;;3.57;2.23;;;;;;;13.97;44.40;100129.59;10380268;28;20173;-79
2021/04/23 08:54:25;;;;;;;8.70;2.70;;;;;;;14.15;44.83;100132.41;10380062;28;20223;-80
2021/04/23 08:59:44;;;;;;;3.17;2.30;;;;;;;15.75;42.46;100123.34;10363635;28;20176;-80
2021/04/23 09:05:04;;;;;;;2.87;2.67;;;;;;;15.35;40.47;100118.50;10379180;28;20216;-80
2021/04/23 09:10:23;;;;;;;9.37;2.97;;;;;;;14.55;43.71;100113.31;10379396;28;20180;-80
2021/04/23 09:15:44;;;;;;;5.40;2.13;;;;;;;14.77;43.28;100129.47;10376981;28;20208;-79
2021/04/23 09:21:04;;;;;;;3.20;2.17;;;;;;;14.53;42.34;100116.50;10378749;28;20226;-80
2021/04/23 09:26:38;;;;;;;3.50;2.30;;;;;;;14.82;42.66;100122.72;10378474;28;20208;-80
2021/04/23 09:32:17;;;;;;;2.37;2.00;;;;;;;15.69;37.77;100111.91;10377355;28;20176;-79
2021/04/23 09:38:05;;;;;;;3.00;1.97;;;;;;;16.42;37.11;100107.66;10378456;28;20181;-79
2021/04/23 09:43:37;;;;;;;2.90;2.30;;;;;;;17.09;36.03;100105.63;10373123;28;20682;-79
2021/04/23 09:49:14;;;;;;;7.80;2.80;;;;;;;16.15;34.14;100109.53;10377179;28;20640;-79
2021/04/23 09:54:34;;;;;;;17.07;3.10;;;;;;;15.59;36.99;100100.88;10376764;28;20177;-81
2021/04/23 09:59:57;;;;;;;3.70;1.77;;;;;;;15.90;35.76;100099.81;10376281;28;20177;-79
2021/04/23 10:05:35;;;;;;;4.23;2.43;;;;;;;15.62;35.38;100100.84;10376786;28;20686;-79
2021/04/23 10:10:57;;;;;;;3.13;2.10;;;;;;;15.66;35.56;100096.09;10376012;28;20620;-80
2021/04/23 10:16:36;;;;;;;2.23;1.70;;;;;;;16.59;34.95;100098.34;10375727;28;20176;-80
2021/04/23 10:21:56;;;;;;;1.57;1.47;;;;;;;16.96;35.39;100099.84;10376504;28;20819;-79
2021/04/23 10:27:17;;;;;;;2.70;1.47;;;;;;;18.50;33.10;100090.56;10375349;28;20181;-79
2021/04/23 10:32:36;;;;;;;1.70;1.60;;;;;;;19.02;29.90;100080.31;10376184;28;20173;-80
2021/04/23 10:38:06;;;;;;;3.00;2.03;;;;;;;19.92;30.28;100085.75;10375902;28;20177;-81
2021/04/23 10:43:26;;;;;;;7.50;2.70;;;;;;;19.53;27.22;100085.94;10374293;28;20208;-79
2021/04/23 10:48:47;;;;;;;2.13;1.93;;;;;;;17.23;30.00;100088.75;10360633;28;20204;-80
2021/04/23 10:54:15;;;;;;;5.10;2.63;;;;;;;17.27;33.01;100095.84;10375501;28;20172;-81
2021/04/23 10:59:36;;;;;;;4.97;2.17;;;;;;;17.01;31.67;100088.28;10374009;28;20184;-80
2021/04/23 11:05:00;;;;;;;5.10;2.23;;;;;;;19.29;31.54;100064.97;10374745;28;20204;-81
2021/04/23 11:10:19;;;;;;;2.87;1.50;;;;;;;19.17;29.12;100070.47;10375121;28;20173;-80
2021/04/23 11:15:38;;;;;;;1.20;1.00;;;;;;;18.02;28.40;100060.81;10373690;28;20208;-80
2021/04/23 11:21:34;;;;;;;1.70;1.60;;;;;;;17.71;29.24;100059.41;10374540;28;20263;-80
2021/04/23 11:32:18;;;;;;;4.30;1.30;;;;;;;19.26;25.95;100053.91;10372882;28;20208;-80
2021/04/23 11:37:42;;;;;;;1.40;1.20;;;;;;;20.15;24.66;100047.25;10373227;28;20173;-80
2021/04/23 11:43:04;;;;;;;1.70;1.50;;;;;;;19.07;25.66;100045.56;10372528;28;20212;-80
2021/04/23 11:48:23;;;;;;;3.87;1.53;;;;;;;19.29;23.06;100028.72;10373165;28;20228;-80
2021/04/23 11:53:47;;;;;;;5.53;1.70;;;;;;;19.96;24.73;100035.41;10373847;28;20185;-80
2021/04/23 11:59:06;;;;;;;1.50;1.33;;;;;;;20.87;24.27;100028.84;10372404;28;20550;-79
2021/04/23 12:04:39;;;;;;;1.70;1.30;;;;;;;21.25;22.76;100010.03;10373269;28;20200;-79
2021/04/23 12:10:10;;;;;;;3.03;1.10;;;;;;;21.88;24.54;100017.94;10376770;28;20177;-78
2021/04/23 12:15:33;;;;;;;3.33;2.10;;;;;;;23.06;22.95;100014.78;10380508;28;20180;-79
2021/04/23 12:20:54;;;;;;;3.50;1.30;;;;;;;21.63;22.74;100014.41;10381226;28;20570;-78
2021/04/23 12:26:15;;;;;;;3.67;2.00;;;;;;;20.69;25.79;100011.75;10380831;28;20212;-78
2021/04/23 12:31:40;;;;;;;3.30;1.20;;;;;;;18.57;27.27;100018.00;10380063;28;20177;-79
2021/04/23 12:36:59;;;;;;;3.47;1.40;;;;;;;17.40;25.33;100021.75;10380726;28;20181;-79
2021/04/23 12:42:17;;;;;;;2.07;1.13;;;;;;;19.20;24.25;100010.22;10378363;28;20674;-79
2021/04/23 12:47:36;;;;;;;1.40;1.03;;;;;;;20.56;23.38;100002.56;10379491;28;20216;-79
2021/04/23 12:52:55;;;;;;;4.13;2.37;;;;;;;20.78;20.25;100002.75;10380090;28;20526;-79
2021/04/23 12:58:15;;;;;;;3.50;1.30;;;;;;;19.69;21.86;100004.97;10378758;28;20177;-79
2021/04/23 13:03:34;;;;;;;1.60;1.30;;;;;;;19.98;22.20;100000.25;10379704;28;20252;-79
2021/04/23 13:09:01;;;;;;;2.07;1.60;;;;;;;21.43;22.34;99999.06;10379641;28;20185;-79
2021/04/23 13:14:22;;;;;;;1.40;1.20;;;;;;;22.56;20.37;99985.03;10378181;28;20173;-79
2021/04/23 13:19:43;;;;;;;9.20;1.50;;;;;;;22.13;19.86;99975.03;10378228;28;20639;-80
2021/04/23 13:25:11;;;;;;;1.60;1.43;;;;;;;21.16;20.89;99979.94;10378117;28;20792;-80
2021/04/23 13:30:37;;;;;;;6.00;1.77;;;;;;;21.26;22.08;99978.03;10376684;28;20597;-80
2021/04/23 13:36:02;;;;;;;2.70;1.50;;;;;;;21.23;22.32;99978.94;10378332;28;20169;-79
2021/04/23 13:41:47;;;;;;;2.27;1.50;;;;;;;23.04;19.99;99967.53;10378261;28;20188;-79
2021/04/23 13:47:10;;;;;;;1.77;1.57;;;;;;;22.33;20.98;99969.91;10376280;28;20232;-79
2021/04/23 13:52:41;;;;;;;2.40;1.27;;;;;;;24.11;18.43;99955.72;10377726;28;20627;-80
2021/04/23 13:58:04;;;;;;;2.03;1.83;;;;;;;24.43;18.61;99949.47;10376640;28;20177;-80
2021/04/23 14:03:25;;;;;;;1.73;1.63;;;;;;;24.35;20.67;99942.59;10377280;28;20200;-80
2021/04/23 14:08:44;;;;;;;2.80;1.90;;;;;;;23.40;20.33;99960.00;10377241;28;20234;-80
2021/04/23 14:14:09;;;;;;;1.70;1.60;;;;;;;23.73;20.36;99946.97;10375852;28;20208;-81
2021/04/23 14:19:29;;;;;;;1.50;1.40;;;;;;;24.68;18.25;99943.47;10376554;28;20268;-80
2021/04/23 14:24:48;;;;;;;2.33;1.33;;;;;;;24.33;20.89;99939.44;10361462;28;20658;-80
2021/04/23 14:30:08;;;;;;;1.67;1.57;;;;;;;23.98;20.30;99940.28;10375092;28;20180;-80
2021/04/23 14:35:27;;;;;;;1.70;1.60;;;;;;;22.42;19.11;99948.31;10375847;28;20173;-79
2021/04/23 14:40:46;;;;;;;2.00;1.30;;;;;;;22.18;19.97;99926.78;10375874;28;20180;-79
2021/04/23 14:46:06;;;;;;;1.70;1.20;;;;;;;22.39;19.57;99923.97;10373925;28;20633;-81
2021/04/23 14:51:25;;;;;;;3.47;1.40;;;;;;;22.45;22.38;99924.97;10375647;28;20180;-80
2021/04/23 14:56:44;;;;;;;1.50;1.40;;;;;;;23.12;21.49;99921.09;10375262;28;20267;-81
2021/04/23 15:02:03;;;;;;;2.00;1.40;;;;;;;22.50;20.34;99919.53;10373041;28;20180;-81
2021/04/23 15:07:23;;;;;;;1.93;1.60;;;;;;;22.50;20.56;99916.72;10375003;28;20180;-81
2021/04/23 15:12:42;;;;;;;2.07;1.93;;;;;;;22.54;21.08;99914.56;10373882;28;20200;-81
2021/04/23 15:18:02;;;;;;;3.47;1.80;;;;;;;23.53;21.44;99904.47;10374374;28;20196;-80
2021/04/23 15:23:22;;;;;;;3.20;1.30;;;;;;;22.16;20.90;99907.63;10373373;28;20208;-80
2021/04/23 15:28:41;;;;;;;1.70;1.47;;;;;;;22.36;22.44;99894.06;10373337;28;20577;-81
2021/04/23 15:34:00;;;;;;;1.30;1.10;;;;;;;23.30;20.89;99895.06;10374259;28;20173;-80
2021/04/23 15:39:20;;;;;;;1.20;1.10;;;;;;;21.77;20.57;99896.25;10372632;28;20173;-81
2021/04/23 15:44:39;;;;;;;1.70;1.37;;;;;;;22.26;21.47;99888.81;10371650;28;20310;-80
2021/04/23 15:49:58;;;;;;;1.40;1.10;;;;;;;23.56;20.72;99883.88;10373968;28;20169;-80
2021/04/23 15:55:19;;;;;;;2.13;1.70;;;;;;;22.42;22.56;99883.81;10373786;28;20177;-79
2021/04/23 16:00:38;;;;;;;1.80;1.70;;;;;;;22.75;21.50;99882.88;10372699;28;20615;-80
2021/04/23 16:05:58;;;;;;;3.63;1.13;;;;;;;20.94;21.85;99881.13;10373025;28;20303;-79
2021/04/23 16:11:17;;;;;;;1.60;1.17;;;;;;;21.53;24.22;99880.31;10373433;28;20644;-79
2021/04/23 16:16:36;;;;;;;2.50;1.50;;;;;;;20.34;22.70;99889.84;10372172;28;20200;-79
2021/04/23 16:21:55;;;;;;;1.93;1.70;;;;;;;19.47;23.98;99891.50;10373311;28;20180;-79
2021/04/23 16:27:14;;;;;;;1.80;1.20;;;;;;;19.31;24.46;99875.59;10372460;28;20749;-80
2021/04/23 16:32:33;;;;;;;2.83;1.33;;;;;;;18.75;25.24;99881.00;10372880;28;20184;-79
2021/04/23 16:37:53;;;;;;;2.37;1.60;;;;;;;19.44;24.60;99884.81;10373031;28;20177;-80
2021/04/23 16:43:12;;;;;;;5.10;2.30;;;;;;;18.26;26.08;99881.31;10371484;28;20564;-79
2021/04/23 16:48:31;;;;;;;1.87;1.20;;;;;;;18.16;25.46;99882.34;10371745;28;20181;-79
2021/04/23 16:53:50;;;;;;;2.73;1.83;;;;;;;17.61;27.54;99882.25;10372763;28;20176;-80
2021/04/23 16:59:09;;;;;;;3.20;2.30;;;;;;;17.91;26.17;99874.50;10378758;28;20591;-79
2021/04/23 17:04:29;;;;;;;1.80;1.20;;;;;;;17.19;27.92;99876.66;10364188;28;20208;-79
2021/04/23 17:09:48;;;;;;;1.47;1.03;;;;;;;16.69;28.39;99887.03;10379871;28;20177;-78
2021/04/23 17:15:10;;;;;;;2.13;1.40;;;;;;;16.99;28.58;99882.16;10378032;28;20188;-79
2021/04/23 17:20:29;;;;;;;1.27;1.10;;;;;;;16.66;28.33;99887.09;10379304;28;20185;-78
2021/04/23 17:25:48;;;;;;;2.07;1.37;;;;;;;17.04;28.08;99880.91;10377668;28;20279;-78
2021/04/23 17:31:09;;;;;;;2.20;1.60;;;;;;;17.07;28.53;99880.06;10377478;28;20188;-78
2021/04/23 17:36:28;;;;;;;3.80;3.33;;;;;;;17.46;28.87;99875.38;10378515;28;20185;-79
2021/04/23 17:41:47;;;;;;;2.10;1.90;;;;;;;18.37;30.16;99876.31;10377208;28;20168;-78
2021/04/23 17:47:06;;;;;;;2.97;1.40;;;;;;;17.66;32.08;99884.56;10376275;28;20251;-79
2021/04/23 17:52:26;;;;;;;1.80;1.40;;;;;;;16.44;34.64;99892.16;10377898;28;20176;-79
2021/04/23 17:57:46;;;;;;;3.20;1.70;;;;;;;15.80;36.25;99892.59;10376584;28;20214;-78
2021/04/23 18:03:05;;;;;;;2.17;1.50;;;;;;;15.33;37.43;99890.75;10377328;28;20205;-78
2021/04/23 18:08:24;;;;;;;3.83;2.20;;;;;;;14.85;38.34;99903.06;10376732;28;20180;-78
2021/04/23 18:13:43;;;;;;;5.10;1.23;;;;;;;14.49;39.30;99898.94;10375917;28;20173;-78
2021/04/23 18:19:02;;;;;;;3.70;2.10;;;;;;;14.23;39.58;99905.03;10376718;28;20192;-78
2021/04/23 18:24:21;;;;;;;2.97;1.50;;;;;;;13.98;40.04;99900.78;10376436;28;20208;-78
2021/04/23 18:29:41;;;;;;;1.30;1.13;;;;;;;13.76;40.69;99902.84;10375225;28;20213;-78
2021/04/23 18:35:00;;;;;;;2.93;1.30;;;;;;;13.48;41.31;99909.66;10376099;28;20545;-78
2021/04/23 18:40:23;;;;;;;2.10;1.67;;;;;;;13.27;42.07;99918.78;10376034;28;20534;-78
2021/04/23 18:45:45;;;;;;;1.70;1.40;;;;;;;13.21;41.80;99934.16;10373186;28;20233;-78
2021/04/23 18:51:05;;;;;;;10.50;1.57;;;;;;;13.12;42.40;99935.75;10375791;28;20534;-78
2021/04/23 18:56:24;;;;;;;2.53;1.43;;;;;;;12.88;42.94;99947.59;10360812;28;20169;-78
2021/04/23 19:01:43;;;;;;;5.37;1.23;;;;;;;12.71;43.46;99951.06;10373205;28;20160;-78
2021/04/23 19:07:02;;;;;;;1.67;1.30;;;;;;;12.46;43.98;99947.47;10374446;28;20212;-78
2021/04/23 19:12:21;;;;;;;1.30;1.20;;;;;;;12.19;44.61;99949.00;10373742;28;20267;-78
2021/04/23 19:17:44;;;;;;;2.10;1.03;;;;;;;11.92;45.47;99954.38;10374673;28;20227;-78
2021/04/23 19:23:04;;;;;;;3.90;2.03;;;;;;;11.64;46.10;99959.72;10374514;28;20205;-78
2021/04/23 19:28:23;;;;;;;1.77;1.37;;;;;;;11.32;47.07;99961.47;10372130;28;20184;-78
2021/04/23 19:33:45;;;;;;;1.70;1.40;;;;;;;11.21;47.56;99975.16;10374424;28;20177;-78
2021/04/23 19:39:05;;;;;;;2.27;1.27;;;;;;;11.10;47.72;99979.00;10374078;28;20173;-78
2021/04/23 19:44:24;;;;;;;3.10;1.90;;;;;;;10.95;48.06;99982.81;10372269;28;20224;-78
2021/04/23 19:49:43;;;;;;;2.10;1.73;;;;;;;10.82;48.59;99989.78;10373871;28;20172;-78
2021/04/23 19:55:04;;;;;;;2.47;2.27;;;;;;;10.73;48.77;99983.78;10372854;28;20631;-77
2021/04/23 20:00:25;;;;;;;1.70;1.53;;;;;;;10.59;49.53;99989.13;10372729;28;20196;-78
2021/04/23 20:05:44;;;;;;;5.43;1.93;;;;;;;10.56;50.06;99987.16;10358278;28;20204;-78
2021/04/23 20:11:03;;;;;;;1.93;1.83;;;;;;;10.47;50.46;99975.66;10358841;28;20676;-77
2021/04/23 20:16:23;;;;;;;2.20;1.70;;;;;;;10.41;51.46;99979.13;10370988;28;20200;-78
2021/04/23 20:21:42;;;;;;;4.13;2.40;;;;;;;10.27;52.54;99984.47;10373406;28;20276;-77
2021/04/23 20:27:01;;;;;;;4.80;1.90;;;;;;;9.99;53.26;99988.81;10357820;28;20212;-78
2021/04/23 20:32:20;;;;;;;3.70;1.87;;;;;;;9.83;53.84;99979.94;10378511;28;20615;-77
2021/04/23 20:37:42;;;;;;;4.13;2.27;;;;;;;9.77;55.12;99978.69;10381139;28;20255;-78
2021/04/23 20:43:01;;;;;;;3.23;1.63;;;;;;;9.57;55.92;99977.22;10379334;28;20651;-77
2021/04/23 20:48:20;;;;;;;4.43;2.70;;;;;;;9.29;56.17;99965.03;10379827;28;20212;-77
2021/04/23 20:53:38;;;;;;;2.87;2.67;;;;;;;9.31;55.45;99968.19;10365445;28;20173;-77
2021/04/23 20:58:58;;;;;;;4.50;1.53;;;;;;;8.97;55.15;99967.25;10378900;28;20177;-78
2021/04/23 21:04:17;;;;;;;8.73;2.70;;;;;;;8.78;54.56;99972.03;10364703;28;20208;-77
2021/04/23 21:09:36;;;;;;;1.77;1.40;;;;;;;8.72;55.69;99971.53;10378707;28;20168;-77
2021/04/23 21:14:54;;;;;;;2.87;1.57;;;;;;;8.68;56.18;99977.31;10377024;28;20192;-77
2021/04/23 21:20:14;;;;;;;1.80;1.70;;;;;;;8.56;58.50;99970.06;10378316;28;20558;-78
2021/04/23 21:25:33;;;;;;;3.80;2.27;;;;;;;8.21;59.43;99976.84;10363984;28;20212;-77
2021/04/23 21:30:52;;;;;;;2.20;1.57;;;;;;;8.18;60.51;99972.06;10362704;28;20267;-77
2021/04/23 21:36:12;;;;;;;8.17;1.70;;;;;;;7.96;60.98;99964.56;10378908;28;20184;-77
2021/04/23 21:41:31;;;;;;;1.90;1.70;;;;;;;7.81;60.87;99967.34;10377516;28;20615;-77
2021/04/23 21:46:50;;;;;;;7.17;1.43;;;;;;;7.69;62.83;99964.75;10376388;28;20241;-77
2021/04/23 21:52:09;;;;;;;4.13;2.60;;;;;;;7.57;64.08;99965.69;10363229;28;20212;-77
2021/04/23 21:57:28;;;;;;;3.00;1.77;;;;;;;7.50;65.01;99960.06;10361827;28;20184;-77
2021/04/23 22:02:47;;;;;;;6.00;5.10;;;;;;;7.15;65.66;99959.25;10362642;28;20204;-77
2021/04/23 22:08:07;;;;;;;4.47;1.87;;;;;;;7.08;66.39;99962.97;10362731;28;20694;-77
2021/04/23 22:13:26;;;;;;;3.50;1.70;;;;;;;6.93;67.00;99952.81;10375880;28;20181;-77
2021/04/23 22:18:45;;;;;;;2.20;1.83;;;;;;;6.80;66.97;99957.59;10361651;28;20610;-77
2021/04/23 22:24:08;;;;;;;2.20;1.87;;;;;;;6.83;67.45;99956.88;10361795;28;20569;-77
2021/04/23 22:29:27;;;;;;;2.73;1.90;;;;;;;6.69;68.82;99962.00;10360474;28;20169;-77
2021/04/23 22:34:46;;;;;;;1.20;0.80;;;;;;;6.60;69.85;99963.31;10361252;28;20200;-77
2021/04/23 22:40:07;;;;;;;1.73;1.63;;;;;;;6.41;69.84;99963.19;10376345;28;20180;-77
2021/04/23 22:45:27;;;;;;;3.30;2.00;;;;;;;6.29;71.60;99957.81;10374121;28;20271;-77
2021/04/23 22:50:46;;;;;;;3.50;2.40;;;;;;;6.00;73.27;99960.91;10375796;28;20173;-77
2021/04/23 22:56:05;;;;;;;1.70;0.90;;;;;;;5.87;74.22;99959.38;10360603;28;20181;-77
2021/04/23 23:01:24;;;;;;;3.20;1.90;;;;;;;5.78;75.75;99949.72;10359185;28;20215;-76
2021/04/23 23:06:45;;;;;;;3.97;2.17;;;;;;;5.72;77.01;99957.34;10374876;28;20200;-76
2021/04/23 23:12:05;;;;;;;4.40;2.27;;;;;;;5.60;78.02;99951.91;10360326;28;20623;-77
2021/04/23 23:17:24;;;;;;;5.03;2.10;;;;;;;5.36;79.02;99950.38;10359983;28;20200;-77
2021/04/23 23:22:43;;;;;;;3.37;1.80;;;;;;;5.43;78.32;99956.03;10360109;28;20279;-77
2021/04/23 23:28:03;;;;;;;2.77;1.83;;;;;;;5.45;78.95;99956.50;10358374;28;20173;-77
2021/04/23 23:33:22;;;;;;;4.03;2.20;;;;;;;5.35;79.47;99954.25;10359662;28;20640;-77
2021/04/23 23:38:41;;;;;;;3.63;2.90;;;;;;;4.96;80.56;99949.50;10359473;28;20631;-77
2021/04/23 23:44:00;;;;;;;7.93;1.90;;;;;;;4.91;79.34;99938.84;10357710;28;20229;-78
2021/04/23 23:49:20;;;;;;;4.27;1.40;;;;;;;4.96;80.92;99942.13;10373929;28;20582;-77
2021/04/23 23:54:40;;;;;;;8.77;2.57;;;;;;;4.68;83.67;99939.63;10372764;28;20172;-77
